Flight Track Log - Related Links

Times and Time Zones

All times are in EDT time to prevent confusion due to time zone crossing. See the SKW5618 flight status page for this flight to view local times or setup timezone preferences in your user account.

Time Position Orientation Groundspeed Altitude Reporting Facility
EDT Latitude Longitude Course Direction KTS MPH feet Rate Location/Type
Fri 11:20:32 PM 37.6336 -122.3603 North 160 184 33,000  Level Oakland Center
Fri 11:21:33 PM 37.6633 -122.3175 49° Northeast 191 220 2,900 -13,574 Descending Oakland Center
Fri 11:22:34 PM 37.7175 -122.2881 23° Northeast 214 246 5,400 2,164 Climbing Oakland Center
Fri 11:23:00 PM 37.6203 -122.3663 North  Level FlightAware Approximate
Fri 11:23:35 PM 37.7844 -122.2858 North 234 269 7,300  Level Oakland Center
Fri 11:24:00 PM 37.7302 -122.3540 North  Level FlightAware Approximate
Fri 11:24:36 PM 37.8600 -122.2836 North 264 304 9,300  Level Oakland Center
Fri 11:25:00 PM 37.8405 -122.3500 North  Level FlightAware Approximate
Fri 11:25:37 PM 37.9547 -122.2678 North 297 342 11,700  Level Oakland Center
Fri 11:26:38 PM 38.0367 -122.2347 18° North 312 359 13,400 1,721 Climbing Oakland Center
Fri 11:27:39 PM 38.1219 -122.1986 18° North 324 373 15,200 1,574 Climbing Oakland Center
Fri 11:28:40 PM 38.2097 -122.1617 18° North 333 383 16,600 1,377 Climbing Oakland Center
Fri 11:29:41 PM 38.2997 -122.1244 18° North 340 391 18,000 1,525 Climbing Oakland Center
Fri 11:30:42 PM 38.3908 -122.0861 18° North 345 397 19,700 1,426 Climbing Oakland Center
Fri 11:31:43 PM 38.4839 -122.0444 19° North 354 407 20,900 1,180 Climbing Oakland Center
Fri 11:32:44 PM 38.5786 -122.0042 18° North 359 413 22,100 1,082 Climbing Oakland Center
Fri 11:33:45 PM 38.6769 -121.9628 18° North 368 423 23,100 1,033 Climbing Oakland Center
Fri 11:34:46 PM 38.7797 -121.9231 17° North 381 438 24,200 1,033 Climbing Oakland Center
Fri 11:35:47 PM 38.8800 -121.8794 19° North 381 438 25,200 836 Climbing Oakland Center
Fri 11:36:48 PM 38.9842 -121.8342 19° North 390 449 25,900 836 Climbing Oakland Center
Fri 11:37:49 PM 39.1108 -121.7800 18° North 398 458 26,900 885 Climbing Oakland Center
Fri 11:38:50 PM 39.2181 -121.7333 19° North 404 465 27,700 689 Climbing Oakland Center
Fri 11:39:51 PM 39.3250 -121.6875 18° North 404 465 28,300 639 Climbing Oakland Center
Fri 11:40:52 PM 39.4331 -121.6403 19° North 409 471 29,000 787 Climbing Oakland Center
Fri 11:41:53 PM 39.5417 -121.5917 19° North 408 470 29,900 738 Climbing Oakland Center
Fri 11:42:54 PM 39.6492 -121.5442 19° North 409 471 30,500 590 Climbing Oakland Center
Fri 11:43:55 PM 39.7581 -121.4967 19° North 413 475 31,100 738 Climbing Oakland Center
Fri 11:44:56 PM 39.8650 -121.4492 19° North 410 472 32,000 443 Climbing Oakland Center
Fri 11:45:57 PM 39.9711 -121.4019 19° North 407 468 32,000  Level Oakland Center
Fri 11:46:58 PM 40.0850 -121.3542 18° North 428 493 32,000  Level Oakland Center
Fri 11:47:59 PM 40.1986 -121.3033 19° North 433 498 32,000  Level Oakland Center
Fri 11:49:00 PM 40.3139 -121.2519 19° North 438 504 32,000  Level Oakland Center
Fri 11:50:00 PM 40.4536 -121.1900 19° North 442 509 32,000  Level Oakland Center
Fri 11:51:01 PM 40.5553 -121.1450 19° North 439 505 32,000  Level Oakland Center
Fri 11:51:44 PM 40.6472 -121.1028 19° North 440 506 32,000  Level Seattle Center
Fri 11:52:44 PM 40.7619 -121.0508 19° North 437 503 32,000  Level Seattle Center
Fri 11:53:45 PM 40.8761 -121.0003 19° North 434 499 32,000  Level Seattle Center
Fri 11:54:45 PM 40.9886 -120.9472 20° North 432 497 32,000  Level Seattle Center
Fri 11:55:46 PM 41.1003 -120.8975 19° North 426 490 32,000  Level Seattle Center
Fri 11:56:47 PM 41.2100 -120.8475 19° North 421 484 32,000  Level Seattle Center
Fri 11:57:47 PM 41.3211 -120.7961 19° North 422 486 32,000  Level Seattle Center
Fri 11:58:49 PM 41.4306 -120.7461 19° North 420 483 32,000  Level Seattle Center
Fri 11:59:49 PM 41.5392 -120.6944 20° North 416 479 32,000  Level Seattle Center
Sat 12:00:50 AM 41.6586 -120.6383 19° North 414 476 32,000 295 Level Seattle Center
Sat 12:01:51 AM 41.7531 -120.5944 19° North 405 466 32,600 496 Climbing Seattle Center
Sat 12:02:51 AM 41.8583 -120.5444 19° North 403 464 33,000 198 Climbing Seattle Center
Sat 12:03:52 AM 41.9650 -120.4942 19° North 407 468 33,000 50 Level Seattle Center
Sat 12:04:52 AM 42.0747 -120.4433 19° North 418 481 33,100  Climbing Seattle Center
Sat 12:05:53 AM 42.1831 -120.3914 20° North 416 479 33,000 -49 Descending Seattle Center
Sat 12:06:54 AM 42.3125 -120.3303 19° North 414 476 33,000  Level Seattle Center
Sat 12:07:54 AM 42.4200 -120.2797 19° North 410 472 33,000  Level Seattle Center
Sat 12:08:55 AM 42.5258 -120.2264 20° North 408 470 33,000  Level Seattle Center
Sat 12:09:56 AM 42.6317 -120.1772 19° North 405 466 33,000  Level Seattle Center
Sat 12:10:56 AM 42.7367 -120.1256 20° North 404 465 33,000  Level Seattle Center
Sat 12:11:57 AM 42.8411 -120.0750 20° North 399 459 33,000  Level Seattle Center
Sat 12:12:58 AM 42.9431 -120.0258 19° North 392 451 33,000  Level Seattle Center
Sat 12:13:58 AM 43.0458 -119.9747 20° North 394 453 33,000  Level Seattle Center
Sat 12:14:59 AM 43.1472 -119.9244 20° North 390 449 33,000  Level Seattle Center
Sat 12:15:59 AM 43.2467 -119.8747 20° North 383 441 33,000  Level Seattle Center
Sat 12:17:00 AM 43.3447 -119.8261 20° North 382 440 33,000  Level Seattle Center
Sat 12:18:01 AM 43.4433 -119.7783 19° North 379 436 33,000  Level Seattle Center
Sat 12:19:01 AM 43.5383 -119.7300 20° North 369 425 33,000  Level Seattle Center
Sat 12:20:02 AM 43.6342 -119.6825 20° North 367 422 33,000  Level Seattle Center
Sat 12:21:02 AM 43.7294 -119.6358 19° North 365 420 33,000  Level Seattle Center
Sat 12:22:03 AM 43.8244 -119.5881 20° North 365 420 33,000  Level Seattle Center
Sat 12:23:04 AM 43.9358 -119.5317 20° North 357 411 33,000  Level Seattle Center
Sat 12:24:04 AM 44.0303 -119.4833 20° North 360 414 33,000  Level Seattle Center
Sat 12:25:05 AM 44.1244 -119.4350 20° North 363 418 33,000  Level Seattle Center
Sat 12:26:05 AM 44.2183 -119.3883 20° North 360 414 33,000  Level Seattle Center
Sat 12:27:06 AM 44.3111 -119.3397 21° North 359 413 33,000 -99 Level Seattle Center
Sat 12:28:06 AM 44.4067 -119.2911 20° North 365 420 32,800 -347 Descending Seattle Center
Sat 12:29:07 AM 44.5006 -119.2433 20° North 363 418 32,300 -393 Descending Seattle Center
Sat 12:30:08 AM 44.5983 -119.1936 20° North 371 427 32,000 -149 Descending Seattle Center
Sat 12:31:08 AM 44.6964 -119.1433 20° North 377 434 32,000  Level Seattle Center
Sat 12:32:09 AM 44.7928 -119.0928 20° North 375 432 32,000  Level Seattle Center
Sat 12:33:09 AM 44.8875 -119.0431 20° North 368 423 32,000  Level Seattle Center
Sat 12:34:10 AM 44.9822 -118.9933 20° North 365 420 32,000  Level Seattle Center
Sat 12:35:10 AM 45.0772 -118.9453 20° North 365 420 32,000  Level Seattle Center
Sat 12:36:11 AM 45.1692 -118.8947 21° North 359 413 32,000  Level Seattle Center
Sat 12:37:12 AM 45.2633 -118.8450 20° North 362 417 32,000  Level Seattle Center
Sat 12:38:12 AM 45.3550 -118.7950 21° North 357 411 32,000  Level Seattle Center
Sat 12:39:13 AM 45.4689 -118.7361 20° North 361 415 32,000  Level Seattle Center
Sat 12:40:13 AM 45.5636 -118.6853 21° North 365 420 32,000  Level Seattle Center
Sat 12:41:14 AM 45.6581 -118.6344 21° North 365 420 32,000  Level Seattle Center
Sat 12:42:14 AM 45.7522 -118.5839 21° North 365 420 32,000 -149 Level Seattle Center
Sat 12:43:15 AM 45.8461 -118.5328 21° North 366 421 31,700 -694 Descending Seattle Center
Sat 12:44:15 AM 45.9439 -118.4778 21° North 384 442 30,600 -1,041 Descending Seattle Center
Sat 12:45:16 AM 46.0481 -118.4225 20° North 401 461 29,600 -1,328 Descending Seattle Center
Sat 12:46:17 AM 46.1492 -118.3664 21° North 393 452 27,900 -1,835 Descending Seattle Center
Sat 12:47:17 AM 46.2500 -118.3094 21° North 393 452 25,900 -2,033 Descending Seattle Center
Sat 12:48:18 AM 46.3519 -118.2556 20° North 393 452 23,800 -2,033 Descending Seattle Center
Sat 12:49:18 AM 46.4539 -118.1989 21° North 394 453 21,800 -1,983 Descending Seattle Center
Sat 12:50:19 AM 46.5500 -118.1453 21° North 377 434 19,800 -1,983 Descending Seattle Center
Sat 12:51:19 AM 46.6386 -118.0947 21° North 348 400 17,800 -1,835 Descending Seattle Center
Sat 12:52:20 AM 46.7256 -118.0481 20° North 336 387 16,100 -1,820 Descending Seattle Center
Sat 12:53:21 AM 46.8136 -117.9989 21° North 342 394 14,100 -1,983 Descending Seattle Center
Sat 12:54:21 AM 46.9008 -117.9511 21° North 338 389 12,100 -1,835 Descending Seattle Center
Sat 12:55:22 AM 46.9825 -117.9019 22° Northeast 315 362 10,400 -1,339 Descending Seattle Center
Sat 12:56:22 AM 47.0517 -117.8625 21° North 268 308 9,400 -992 Descending Seattle Center
Sat 12:57:23 AM 47.1206 -117.8272 19° North 263 303 8,400 -1,082 Descending Seattle Center
Sat 12:58:24 AM 47.2058 -117.7900 17° North 266 306 7,200 -1,091 Descending Seattle Center
Sat 12:59:24 AM 47.2803 -117.7572 17° North 276 318 6,200 -595 Descending Seattle Center
Sat 01:00:25 AM 47.3522 -117.7239 17° North 272 313 6,000 -99 Descending Seattle Center
Sat 01:01:25 AM 47.4225 -117.6919 17° North 266 306 6,000 -446 Level Seattle Center
Sat 01:02:26 AM 47.4881 -117.6625 17° North 246 283 5,100 -843 Descending Seattle Center
Sat 01:03:26 AM 47.5347 -117.6406 18° North 175 201 4,300 -744 Descending Seattle Center
Sat 01:04:27 AM 47.5700 -117.6125 28° Northeast 146 168 3,600 -744 Descending Seattle Center
Sat 01:05:27 AM 47.5981 -117.5689 46° Northeast 145 167 2,800 -595 Descending Seattle Center
Sat 01:06:28 AM 47.6272 -117.5258 45° Northeast 140 161 2,400 -248 Descending Seattle Center
Sat 01:07:28 AM 47.6272 -117.5150 90° East 107 123 2,300 -100 Descending Seattle Center

Login

Don't have an account? Register now (free) for customized features, flight alerts, and more!